sensor_id;sensor_type;location;lat;lon;timestamp;P1;durP1;ratioP1;P2;durP2;ratioP2
9108;SDS011;4590;51.462;6.692;2023-12-22T00:01:20;4.50;;;1.00;;
9108;SDS011;4590;51.462;6.692;2023-12-22T00:03:45;5.67;;;1.03;;
9108;SDS011;4590;51.462;6.692;2023-12-22T00:06:11;6.37;;;1.33;;
9108;SDS011;4590;51.462;6.692;2023-12-22T00:08:37;5.30;;;0.93;;
9108;SDS011;4590;51.462;6.692;2023-12-22T00:11:02;7.60;;;1.63;;
9108;SDS011;4590;51.462;6.692;2023-12-22T00:13:28;5.63;;;1.00;;
9108;SDS011;4590;51.462;6.692;2023-12-22T00:15:54;5.90;;;1.33;;
9108;SDS011;4590;51.462;6.692;2023-12-22T00:18:19;4.83;;;0.93;;
9108;SDS011;4590;51.462;6.692;2023-12-22T00:20:44;5.27;;;1.10;;
9108;SDS011;4590;51.462;6.692;2023-12-22T00:23:09;7.53;;;1.97;;
9108;SDS011;4590;51.462;6.692;2023-12-22T00:25:35;6.13;;;1.10;;
9108;SDS011;4590;51.462;6.692;2023-12-22T00:28:00;5.57;;;1.17;;
9108;SDS011;4590;51.462;6.692;2023-12-22T00:30:25;4.37;;;1.20;;
9108;SDS011;4590;51.462;6.692;2023-12-22T00:32:50;3.80;;;1.10;;
9108;SDS011;4590;51.462;6.692;2023-12-22T00:35:16;5.37;;;1.30;;
9108;SDS011;4590;51.462;6.692;2023-12-22T00:37:42;5.68;;;1.02;;
9108;SDS011;4590;51.462;6.692;2023-12-22T00:40:07;6.47;;;1.77;;
9108;SDS011;4590;51.462;6.692;2023-12-22T00:42:34;6.22;;;1.58;;
9108;SDS011;4590;51.462;6.692;2023-12-22T00:44:59;6.97;;;1.40;;
9108;SDS011;4590;51.462;6.692;2023-12-22T00:47:25;5.40;;;1.43;;
9108;SDS011;4590;51.462;6.692;2023-12-22T00:49:50;6.73;;;1.63;;
9108;SDS011;4590;51.462;6.692;2023-12-22T00:52:15;5.87;;;1.10;;
9108;SDS011;4590;51.462;6.692;2023-12-22T00:54:41;8.63;;;1.60;;
9108;SDS011;4590;51.462;6.692;2023-12-22T00:57:06;7.73;;;1.00;;
9108;SDS011;4590;51.462;6.692;2023-12-22T00:59:31;5.77;;;1.17;;
9108;SDS011;4590;51.462;6.692;2023-12-22T01:01:57;4.70;;;1.07;;
9108;SDS011;4590;51.462;6.692;2023-12-22T01:04:22;13.93;;;1.33;;
9108;SDS011;4590;51.462;6.692;2023-12-22T01:06:47;8.63;;;1.33;;
9108;SDS011;4590;51.462;6.692;2023-12-22T01:09:12;9.77;;;1.50;;
9108;SDS011;4590;51.462;6.692;2023-12-22T01:11:39;3.10;;;0.95;;
9108;SDS011;4590;51.462;6.692;2023-12-22T01:14:05;8.83;;;1.60;;
9108;SDS011;4590;51.462;6.692;2023-12-22T01:16:31;8.63;;;2.22;;
9108;SDS011;4590;51.462;6.692;2023-12-22T01:18:57;10.20;;;1.50;;
9108;SDS011;4590;51.462;6.692;2023-12-22T01:21:22;8.50;;;1.40;;
9108;SDS011;4590;51.462;6.692;2023-12-22T01:23:47;4.20;;;1.20;;
9108;SDS011;4590;51.462;6.692;2023-12-22T01:26:13;7.07;;;1.40;;
9108;SDS011;4590;51.462;6.692;2023-12-22T01:28:38;3.27;;;0.80;;
9108;SDS011;4590;51.462;6.692;2023-12-22T01:31:03;6.20;;;1.20;;
9108;SDS011;4590;51.462;6.692;2023-12-22T01:33:28;5.77;;;1.10;;
9108;SDS011;4590;51.462;6.692;2023-12-22T01:35:54;6.90;;;1.20;;
9108;SDS011;4590;51.462;6.692;2023-12-22T01:38:20;9.63;;;1.33;;
9108;SDS011;4590;51.462;6.692;2023-12-22T01:40:45;7.83;;;1.40;;
9108;SDS011;4590;51.462;6.692;2023-12-22T01:43:10;5.17;;;0.93;;
9108;SDS011;4590;51.462;6.692;2023-12-22T01:45:36;7.67;;;1.10;;
9108;SDS011;4590;51.462;6.692;2023-12-22T01:48:01;5.60;;;0.87;;
9108;SDS011;4590;51.462;6.692;2023-12-22T01:50:28;3.28;;;0.75;;
9108;SDS011;4590;51.462;6.692;2023-12-22T01:52:53;4.07;;;0.70;;
9108;SDS011;4590;51.462;6.692;2023-12-22T01:55:19;3.70;;;0.60;;
9108;SDS011;4590;51.462;6.692;2023-12-22T01:57:45;2.78;;;0.50;;
9108;SDS011;4590;51.462;6.692;2023-12-22T02:00:12;2.80;;;0.63;;
9108;SDS011;4590;51.462;6.692;2023-12-22T02:02:38;2.45;;;0.60;;
9108;SDS011;4590;51.462;6.692;2023-12-22T02:05:07;3.95;;;0.90;;
9108;SDS011;4590;51.462;6.692;2023-12-22T02:07:34;4.15;;;0.60;;
9108;SDS011;4590;51.462;6.692;2023-12-22T02:09:59;5.40;;;0.90;;
9108;SDS011;4590;51.462;6.692;2023-12-22T02:12:25;4.57;;;1.00;;
9108;SDS011;4590;51.462;6.692;2023-12-22T02:14:50;3.93;;;0.90;;
9108;SDS011;4590;51.462;6.692;2023-12-22T02:17:18;3.57;;;0.60;;
9108;SDS011;4590;51.462;6.692;2023-12-22T02:19:49;2.60;;;0.73;;
9108;SDS011;4590;51.462;6.692;2023-12-22T02:24:41;4.10;;;0.80;;
9108;SDS011;4590;51.462;6.692;2023-12-22T02:27:14;7.20;;;1.13;;
9108;SDS011;4590;51.462;6.692;2023-12-22T02:29:55;3.83;;;0.98;;
9108;SDS011;4590;51.462;6.692;2023-12-22T02:32:30;6.85;;;0.98;;
9108;SDS011;4590;51.462;6.692;2023-12-22T02:34:59;6.03;;;0.90;;
9108;SDS011;4590;51.462;6.692;2023-12-22T02:37:27;6.68;;;1.13;;
9108;SDS011;4590;51.462;6.692;2023-12-22T02:39:54;5.60;;;1.33;;
9108;SDS011;4590;51.462;6.692;2023-12-22T02:42:20;6.15;;;1.05;;
9108;SDS011;4590;51.462;6.692;2023-12-22T02:44:49;5.47;;;0.93;;
9108;SDS011;4590;51.462;6.692;2023-12-22T02:47:15;5.72;;;1.27;;
9108;SDS011;4590;51.462;6.692;2023-12-22T02:49:40;5.70;;;1.37;;
9108;SDS011;4590;51.462;6.692;2023-12-22T02:52:06;7.23;;;1.57;;
9108;SDS011;4590;51.462;6.692;2023-12-22T02:54:31;5.03;;;0.90;;
9108;SDS011;4590;51.462;6.692;2023-12-22T02:56:58;3.80;;;0.90;;
9108;SDS011;4590;51.462;6.692;2023-12-22T02:59:23;4.25;;;0.68;;
9108;SDS011;4590;51.462;6.692;2023-12-22T03:01:50;4.28;;;0.75;;
9108;SDS011;4590;51.462;6.692;2023-12-22T03:04:15;4.03;;;0.93;;
9108;SDS011;4590;51.462;6.692;2023-12-22T03:06:42;4.15;;;1.23;;
9108;SDS011;4590;51.462;6.692;2023-12-22T03:09:07;6.57;;;1.10;;
9108;SDS011;4590;51.462;6.692;2023-12-22T03:11:32;6.53;;;1.60;;
9108;SDS011;4590;51.462;6.692;2023-12-22T03:13:58;5.07;;;1.10;;
9108;SDS011;4590;51.462;6.692;2023-12-22T03:16:23;5.73;;;1.20;;
9108;SDS011;4590;51.462;6.692;2023-12-22T03:18:48;6.60;;;1.13;;
9108;SDS011;4590;51.462;6.692;2023-12-22T03:21:17;6.23;;;0.80;;
9108;SDS011;4590;51.462;6.692;2023-12-22T03:23:44;7.65;;;1.33;;
9108;SDS011;4590;51.462;6.692;2023-12-22T03:26:09;9.33;;;1.57;;
9108;SDS011;4590;51.462;6.692;2023-12-22T03:28:34;8.97;;;1.63;;
9108;SDS011;4590;51.462;6.692;2023-12-22T03:30:59;4.53;;;1.37;;
9108;SDS011;4590;51.462;6.692;2023-12-22T03:33:25;10.07;;;2.23;;
9108;SDS011;4590;51.462;6.692;2023-12-22T03:35:50;7.70;;;1.40;;
9108;SDS011;4590;51.462;6.692;2023-12-22T03:38:15;6.80;;;1.10;;
9108;SDS011;4590;51.462;6.692;2023-12-22T03:40:40;7.20;;;1.43;;
9108;SDS011;4590;51.462;6.692;2023-12-22T03:43:07;9.88;;;1.63;;
9108;SDS011;4590;51.462;6.692;2023-12-22T03:45:32;7.43;;;1.10;;
9108;SDS011;4590;51.462;6.692;2023-12-22T03:47:57;6.90;;;1.40;;
9108;SDS011;4590;51.462;6.692;2023-12-22T03:50:23;6.83;;;1.33;;
9108;SDS011;4590;51.462;6.692;2023-12-22T03:52:48;8.83;;;1.60;;
9108;SDS011;4590;51.462;6.692;2023-12-22T03:55:13;5.37;;;1.20;;
9108;SDS011;4590;51.462;6.692;2023-12-22T03:57:38;7.17;;;1.30;;
9108;SDS011;4590;51.462;6.692;2023-12-22T04:00:04;7.53;;;1.60;;
9108;SDS011;4590;51.462;6.692;2023-12-22T04:02:29;5.40;;;1.30;;
9108;SDS011;4590;51.462;6.692;2023-12-22T04:04:55;7.83;;;1.33;;
9108;SDS011;4590;51.462;6.692;2023-12-22T04:07:20;9.20;;;1.77;;
9108;SDS011;4590;51.462;6.692;2023-12-22T04:09:45;9.03;;;1.60;;
9108;SDS011;4590;51.462;6.692;2023-12-22T04:12:10;6.47;;;1.70;;
9108;SDS011;4590;51.462;6.692;2023-12-22T04:14:36;5.30;;;1.80;;
9108;SDS011;4590;51.462;6.692;2023-12-22T04:17:01;8.67;;;1.20;;
9108;SDS011;4590;51.462;6.692;2023-12-22T04:19:26;12.60;;;2.40;;
9108;SDS011;4590;51.462;6.692;2023-12-22T04:21:51;17.27;;;2.60;;
9108;SDS011;4590;51.462;6.692;2023-12-22T04:24:17;5.80;;;1.47;;
9108;SDS011;4590;51.462;6.692;2023-12-22T04:26:42;9.17;;;1.97;;
9108;SDS011;4590;51.462;6.692;2023-12-22T04:29:08;8.97;;;1.80;;
9108;SDS011;4590;51.462;6.692;2023-12-22T04:31:33;8.57;;;3.00;;
9108;SDS011;4590;51.462;6.692;2023-12-22T04:33:58;5.90;;;1.80;;
9108;SDS011;4590;51.462;6.692;2023-12-22T04:36:23;9.97;;;2.03;;
9108;SDS011;4590;51.462;6.692;2023-12-22T04:38:49;13.93;;;2.30;;
9108;SDS011;4590;51.462;6.692;2023-12-22T04:41:14;10.57;;;2.13;;
9108;SDS011;4590;51.462;6.692;2023-12-22T04:43:39;14.47;;;2.03;;
9108;SDS011;4590;51.462;6.692;2023-12-22T04:46:04;17.43;;;2.77;;
9108;SDS011;4590;51.462;6.692;2023-12-22T04:48:30;12.57;;;2.53;;
9108;SDS011;4590;51.462;6.692;2023-12-22T04:50:57;8.52;;;1.80;;
9108;SDS011;4590;51.462;6.692;2023-12-22T04:53:23;11.43;;;2.20;;
9108;SDS011;4590;51.462;6.692;2023-12-22T04:55:49;10.67;;;2.27;;
9108;SDS011;4590;51.462;6.692;2023-12-22T04:58:14;8.50;;;2.10;;
9108;SDS011;4590;51.462;6.692;2023-12-22T05:00:40;6.23;;;1.50;;
9108;SDS011;4590;51.462;6.692;2023-12-22T05:03:05;8.87;;;2.07;;
9108;SDS011;4590;51.462;6.692;2023-12-22T05:05:30;10.73;;;2.27;;
9108;SDS011;4590;51.462;6.692;2023-12-22T05:07:55;8.93;;;1.53;;
9108;SDS011;4590;51.462;6.692;2023-12-22T05:10:21;3.10;;;1.00;;
9108;SDS011;4590;51.462;6.692;2023-12-22T05:12:46;7.07;;;1.20;;
9108;SDS011;4590;51.462;6.692;2023-12-22T05:15:11;4.30;;;1.17;;
9108;SDS011;4590;51.462;6.692;2023-12-22T05:17:36;4.17;;;1.33;;
9108;SDS011;4590;51.462;6.692;2023-12-22T05:20:02;5.40;;;1.27;;
9108;SDS011;4590;51.462;6.692;2023-12-22T05:22:27;5.73;;;1.20;;
9108;SDS011;4590;51.462;6.692;2023-12-22T05:24:55;4.18;;;0.77;;
9108;SDS011;4590;51.462;6.692;2023-12-22T05:27:20;3.93;;;0.93;;
9108;SDS011;4590;51.462;6.692;2023-12-22T05:29:45;3.70;;;1.10;;
9108;SDS011;4590;51.462;6.692;2023-12-22T05:32:11;4.13;;;0.80;;
9108;SDS011;4590;51.462;6.692;2023-12-22T05:34:36;2.03;;;0.70;;
9108;SDS011;4590;51.462;6.692;2023-12-22T05:37:01;4.50;;;0.93;;
9108;SDS011;4590;51.462;6.692;2023-12-22T05:39:26;4.77;;;1.00;;
9108;SDS011;4590;51.462;6.692;2023-12-22T05:41:52;5.50;;;1.00;;
9108;SDS011;4590;51.462;6.692;2023-12-22T05:44:17;2.00;;;0.90;;
9108;SDS011;4590;51.462;6.692;2023-12-22T05:46:42;3.40;;;0.80;;
9108;SDS011;4590;51.462;6.692;2023-12-22T05:49:08;4.90;;;1.13;;
9108;SDS011;4590;51.462;6.692;2023-12-22T05:51:36;6.13;;;1.40;;
9108;SDS011;4590;51.462;6.692;2023-12-22T05:54:03;8.93;;;1.30;;
9108;SDS011;4590;51.462;6.692;2023-12-22T05:56:29;6.47;;;1.95;;
9108;SDS011;4590;51.462;6.692;2023-12-22T05:58:54;10.23;;;1.50;;
9108;SDS011;4590;51.462;6.692;2023-12-22T06:01:20;4.40;;;1.03;;
9108;SDS011;4590;51.462;6.692;2023-12-22T06:03:48;4.17;;;1.30;;
9108;SDS011;4590;51.462;6.692;2023-12-22T06:06:13;3.47;;;0.90;;
9108;SDS011;4590;51.462;6.692;2023-12-22T06:08:39;5.53;;;1.30;;
9108;SDS011;4590;51.462;6.692;2023-12-22T06:11:04;6.40;;;1.67;;
9108;SDS011;4590;51.462;6.692;2023-12-22T06:13:30;7.38;;;1.50;;
9108;SDS011;4590;51.462;6.692;2023-12-22T06:15:56;6.75;;;1.35;;
9108;SDS011;4590;51.462;6.692;2023-12-22T06:18:21;6.80;;;1.40;;
9108;SDS011;4590;51.462;6.692;2023-12-22T06:20:47;4.20;;;0.90;;
9108;SDS011;4590;51.462;6.692;2023-12-22T06:23:12;6.87;;;1.50;;
9108;SDS011;4590;51.462;6.692;2023-12-22T06:25:37;8.47;;;1.50;;
9108;SDS011;4590;51.462;6.692;2023-12-22T06:28:02;7.63;;;1.70;;
9108;SDS011;4590;51.462;6.692;2023-12-22T06:30:28;5.05;;;1.60;;
9108;SDS011;4590;51.462;6.692;2023-12-22T06:32:54;6.63;;;1.73;;
9108;SDS011;4590;51.462;6.692;2023-12-22T06:35:19;9.10;;;1.43;;
9108;SDS011;4590;51.462;6.692;2023-12-22T06:37:48;6.78;;;1.60;;
9108;SDS011;4590;51.462;6.692;2023-12-22T06:40:14;10.83;;;1.60;;
9108;SDS011;4590;51.462;6.692;2023-12-22T06:42:39;7.13;;;1.87;;
9108;SDS011;4590;51.462;6.692;2023-12-22T06:45:05;4.77;;;1.57;;
9108;SDS011;4590;51.462;6.692;2023-12-22T06:47:30;10.27;;;1.90;;
9108;SDS011;4590;51.462;6.692;2023-12-22T06:49:55;6.03;;;1.97;;
9108;SDS011;4590;51.462;6.692;2023-12-22T06:52:21;8.17;;;1.77;;
9108;SDS011;4590;51.462;6.692;2023-12-22T06:54:46;7.00;;;1.57;;
9108;SDS011;4590;51.462;6.692;2023-12-22T06:57:12;6.70;;;1.87;;
9108;SDS011;4590;51.462;6.692;2023-12-22T06:59:37;7.80;;;1.43;;
9108;SDS011;4590;51.462;6.692;2023-12-22T07:02:03;10.20;;;1.80;;
9108;SDS011;4590;51.462;6.692;2023-12-22T07:07:32;12.20;;;1.65;;
9108;SDS011;4590;51.462;6.692;2023-12-22T07:09:58;5.68;;;1.40;;
9108;SDS011;4590;51.462;6.692;2023-12-22T07:12:23;7.37;;;1.53;;
9108;SDS011;4590;51.462;6.692;2023-12-22T07:14:48;8.10;;;1.80;;
9108;SDS011;4590;51.462;6.692;2023-12-22T07:17:14;5.83;;;1.30;;
9108;SDS011;4590;51.462;6.692;2023-12-22T07:19:39;6.27;;;1.40;;
9108;SDS011;4590;51.462;6.692;2023-12-22T07:22:04;6.70;;;1.17;;
9108;SDS011;4590;51.462;6.692;2023-12-22T07:24:30;7.50;;;2.17;;
9108;SDS011;4590;51.462;6.692;2023-12-22T07:26:55;9.97;;;2.13;;
9108;SDS011;4590;51.462;6.692;2023-12-22T07:29:20;8.57;;;2.00;;
9108;SDS011;4590;51.462;6.692;2023-12-22T07:31:46;6.77;;;2.03;;
9108;SDS011;4590;51.462;6.692;2023-12-22T07:34:11;7.47;;;1.47;;
9108;SDS011;4590;51.462;6.692;2023-12-22T07:36:36;6.77;;;1.77;;
9108;SDS011;4590;51.462;6.692;2023-12-22T07:39:01;9.43;;;1.90;;
9108;SDS011;4590;51.462;6.692;2023-12-22T07:41:27;9.77;;;2.47;;
9108;SDS011;4590;51.462;6.692;2023-12-22T07:43:52;8.67;;;1.77;;
9108;SDS011;4590;51.462;6.692;2023-12-22T07:46:18;13.13;;;2.50;;
9108;SDS011;4590;51.462;6.692;2023-12-22T07:51:10;7.55;;;1.98;;
9108;SDS011;4590;51.462;6.692;2023-12-22T07:53:35;6.80;;;1.63;;
9108;SDS011;4590;51.462;6.692;2023-12-22T07:56:01;10.13;;;2.33;;
9108;SDS011;4590;51.462;6.692;2023-12-22T07:58:26;13.53;;;2.50;;
9108;SDS011;4590;51.462;6.692;2023-12-22T08:00:51;13.37;;;2.40;;
9108;SDS011;4590;51.462;6.692;2023-12-22T08:03:17;13.37;;;2.97;;
9108;SDS011;4590;51.462;6.692;2023-12-22T08:05:42;16.23;;;2.30;;
9108;SDS011;4590;51.462;6.692;2023-12-22T08:08:07;14.60;;;3.10;;
9108;SDS011;4590;51.462;6.692;2023-12-22T08:10:32;17.70;;;3.20;;
9108;SDS011;4590;51.462;6.692;2023-12-22T08:12:58;13.63;;;3.20;;
9108;SDS011;4590;51.462;6.692;2023-12-22T08:15:23;12.60;;;2.57;;
9108;SDS011;4590;51.462;6.692;2023-12-22T08:17:49;10.50;;;2.67;;
9108;SDS011;4590;51.462;6.692;2023-12-22T08:22:44;15.32;;;3.58;;
9108;SDS011;4590;51.462;6.692;2023-12-22T08:25:13;18.17;;;3.08;;
9108;SDS011;4590;51.462;6.692;2023-12-22T08:27:39;17.25;;;2.75;;
9108;SDS011;4590;51.462;6.692;2023-12-22T08:30:05;12.60;;;2.95;;
9108;SDS011;4590;51.462;6.692;2023-12-22T08:32:31;15.15;;;3.45;;
9108;SDS011;4590;51.462;6.692;2023-12-22T08:34:56;14.23;;;2.43;;
9108;SDS011;4590;51.462;6.692;2023-12-22T08:37:21;16.47;;;3.57;;
9108;SDS011;4590;51.462;6.692;2023-12-22T08:39:46;15.80;;;3.13;;
9108;SDS011;4590;51.462;6.692;2023-12-22T08:42:12;14.57;;;3.20;;
9108;SDS011;4590;51.462;6.692;2023-12-22T08:44:37;19.37;;;3.07;;
9108;SDS011;4590;51.462;6.692;2023-12-22T08:47:02;16.10;;;3.30;;
9108;SDS011;4590;51.462;6.692;2023-12-22T08:49:28;15.37;;;3.70;;
9108;SDS011;4590;51.462;6.692;2023-12-22T08:51:53;22.73;;;5.10;;
9108;SDS011;4590;51.462;6.692;2023-12-22T08:54:18;14.27;;;3.80;;
9108;SDS011;4590;51.462;6.692;2023-12-22T08:56:43;15.60;;;3.77;;
9108;SDS011;4590;51.462;6.692;2023-12-22T08:59:09;14.30;;;3.60;;
9108;SDS011;4590;51.462;6.692;2023-12-22T09:01:34;22.80;;;4.23;;
9108;SDS011;4590;51.462;6.692;2023-12-22T09:03:59;15.73;;;3.50;;
9108;SDS011;4590;51.462;6.692;2023-12-22T09:06:25;13.73;;;3.23;;
9108;SDS011;4590;51.462;6.692;2023-12-22T09:08:50;15.57;;;3.30;;
9108;SDS011;4590;51.462;6.692;2023-12-22T09:11:16;15.73;;;3.90;;
9108;SDS011;4590;51.462;6.692;2023-12-22T09:13:42;14.55;;;3.58;;
9108;SDS011;4590;51.462;6.692;2023-12-22T09:16:08;23.65;;;4.05;;
9108;SDS011;4590;51.462;6.692;2023-12-22T09:18:34;22.98;;;4.00;;
9108;SDS011;4590;51.462;6.692;2023-12-22T09:21:00;14.57;;;3.40;;
9108;SDS011;4590;51.462;6.692;2023-12-22T09:23:26;15.55;;;3.28;;
9108;SDS011;4590;51.462;6.692;2023-12-22T09:25:52;20.17;;;3.67;;
9108;SDS011;4590;51.462;6.692;2023-12-22T09:28:17;14.70;;;3.23;;
9108;SDS011;4590;51.462;6.692;2023-12-22T09:30:42;17.47;;;3.77;;
9108;SDS011;4590;51.462;6.692;2023-12-22T09:33:10;13.60;;;3.20;;
9108;SDS011;4590;51.462;6.692;2023-12-22T09:35:36;14.88;;;3.22;;
9108;SDS011;4590;51.462;6.692;2023-12-22T09:38:03;16.63;;;2.83;;
9108;SDS011;4590;51.462;6.692;2023-12-22T09:40:28;19.38;;;3.30;;
9108;SDS011;4590;51.462;6.692;2023-12-22T09:42:55;12.43;;;2.78;;
9108;SDS011;4590;51.462;6.692;2023-12-22T09:45:22;17.08;;;3.85;;
9108;SDS011;4590;51.462;6.692;2023-12-22T09:47:48;11.27;;;2.40;;
9108;SDS011;4590;51.462;6.692;2023-12-22T09:50:15;16.60;;;3.17;;
9108;SDS011;4590;51.462;6.692;2023-12-22T09:52:43;12.77;;;2.63;;
9108;SDS011;4590;51.462;6.692;2023-12-22T09:55:09;10.98;;;2.97;;
9108;SDS011;4590;51.462;6.692;2023-12-22T09:57:37;12.18;;;2.55;;
9108;SDS011;4590;51.462;6.692;2023-12-22T10:00:04;13.77;;;3.10;;
9108;SDS011;4590;51.462;6.692;2023-12-22T10:02:33;10.95;;;2.15;;
9108;SDS011;4590;51.462;6.692;2023-12-22T10:05:02;8.82;;;1.90;;
9108;SDS011;4590;51.462;6.692;2023-12-22T10:07:28;11.38;;;2.58;;
9108;SDS011;4590;51.462;6.692;2023-12-22T10:09:55;12.65;;;2.13;;
9108;SDS011;4590;51.462;6.692;2023-12-22T10:14:48;8.80;;;1.63;;
9108;SDS011;4590;51.462;6.692;2023-12-22T10:19:39;9.57;;;2.22;;
9108;SDS011;4590;51.462;6.692;2023-12-22T10:22:05;10.83;;;3.10;;
9108;SDS011;4590;51.462;6.692;2023-12-22T10:27:01;8.02;;;1.50;;
9108;SDS011;4590;51.462;6.692;2023-12-22T10:29:27;7.27;;;1.77;;
9108;SDS011;4590;51.462;6.692;2023-12-22T10:31:52;6.53;;;1.47;;
9108;SDS011;4590;51.462;6.692;2023-12-22T10:34:17;5.50;;;1.40;;
9108;SDS011;4590;51.462;6.692;2023-12-22T10:36:43;8.07;;;1.80;;
9108;SDS011;4590;51.462;6.692;2023-12-22T10:39:08;5.07;;;1.23;;
9108;SDS011;4590;51.462;6.692;2023-12-22T10:41:33;6.60;;;1.60;;
9108;SDS011;4590;51.462;6.692;2023-12-22T10:43:59;4.87;;;1.63;;
9108;SDS011;4590;51.462;6.692;2023-12-22T10:46:24;5.43;;;1.37;;
9108;SDS011;4590;51.462;6.692;2023-12-22T10:48:52;4.13;;;1.23;;
9108;SDS011;4590;51.462;6.692;2023-12-22T10:51:18;5.13;;;1.10;;
9108;SDS011;4590;51.462;6.692;2023-12-22T10:53:43;2.87;;;1.10;;
9108;SDS011;4590;51.462;6.692;2023-12-22T10:56:08;6.13;;;1.30;;
9108;SDS011;4590;51.462;6.692;2023-12-22T10:58:35;4.35;;;1.25;;
9108;SDS011;4590;51.462;6.692;2023-12-22T11:01:00;3.08;;;0.88;;
9108;SDS011;4590;51.462;6.692;2023-12-22T11:03:27;3.67;;;1.20;;
9108;SDS011;4590;51.462;6.692;2023-12-22T11:05:56;6.78;;;1.50;;
9108;SDS011;4590;51.462;6.692;2023-12-22T11:08:23;4.60;;;1.30;;
9108;SDS011;4590;51.462;6.692;2023-12-22T11:10:52;5.68;;;1.00;;
9108;SDS011;4590;51.462;6.692;2023-12-22T11:13:21;3.80;;;1.40;;
9108;SDS011;4590;51.462;6.692;2023-12-22T11:18:14;3.70;;;1.15;;
9108;SDS011;4590;51.462;6.692;2023-12-22T11:20:41;5.93;;;1.33;;
9108;SDS011;4590;51.462;6.692;2023-12-22T11:23:07;5.30;;;1.80;;
9108;SDS011;4590;51.462;6.692;2023-12-22T11:25:34;4.28;;;1.10;;
9108;SDS011;4590;51.462;6.692;2023-12-22T11:28:01;3.30;;;1.20;;
9108;SDS011;4590;51.462;6.692;2023-12-22T11:30:28;4.22;;;1.08;;
9108;SDS011;4590;51.462;6.692;2023-12-22T11:32:54;5.82;;;1.08;;
9108;SDS011;4590;51.462;6.692;2023-12-22T11:35:22;3.63;;;1.20;;
9108;SDS011;4590;51.462;6.692;2023-12-22T11:37:48;3.22;;;1.00;;
9108;SDS011;4590;51.462;6.692;2023-12-22T11:40:14;4.25;;;1.00;;
9108;SDS011;4590;51.462;6.692;2023-12-22T11:42:43;3.40;;;1.07;;
9108;SDS011;4590;51.462;6.692;2023-12-22T11:45:12;3.00;;;1.15;;
9108;SDS011;4590;51.462;6.692;2023-12-22T11:47:40;5.18;;;0.93;;
9108;SDS011;4590;51.462;6.692;2023-12-22T11:50:08;6.30;;;1.00;;
9108;SDS011;4590;51.462;6.692;2023-12-22T11:52:34;2.50;;;0.80;;
9108;SDS011;4590;51.462;6.692;2023-12-22T11:55:00;6.87;;;1.50;;
9108;SDS011;4590;51.462;6.692;2023-12-22T11:59:56;7.22;;;4.15;;
9108;SDS011;4590;51.462;6.692;2023-12-22T12:02:33;3.97;;;2.45;;
9108;SDS011;4590;51.462;6.692;2023-12-22T12:05:00;4.60;;;2.20;;
9108;SDS011;4590;51.462;6.692;2023-12-22T12:07:36;3.15;;;1.23;;
9108;SDS011;4590;51.462;6.692;2023-12-22T12:10:03;3.90;;;1.08;;
9108;SDS011;4590;51.462;6.692;2023-12-22T12:12:29;3.67;;;1.53;;
9108;SDS011;4590;51.462;6.692;2023-12-22T12:14:57;4.30;;;0.93;;
9108;SDS011;4590;51.462;6.692;2023-12-22T12:17:31;1.83;;;0.90;;
9108;SDS011;4590;51.462;6.692;2023-12-22T12:19:57;3.33;;;1.20;;
9108;SDS011;4590;51.462;6.692;2023-12-22T12:22:23;4.90;;;1.20;;
9108;SDS011;4590;51.462;6.692;2023-12-22T12:24:49;3.38;;;1.00;;
9108;SDS011;4590;51.462;6.692;2023-12-22T12:27:18;5.90;;;1.00;;
9108;SDS011;4590;51.462;6.692;2023-12-22T12:29:44;2.92;;;0.90;;
9108;SDS011;4590;51.462;6.692;2023-12-22T12:32:10;4.17;;;1.00;;
9108;SDS011;4590;51.462;6.692;2023-12-22T12:34:39;4.82;;;1.08;;
9108;SDS011;4590;51.462;6.692;2023-12-22T12:37:07;3.05;;;1.00;;
9108;SDS011;4590;51.462;6.692;2023-12-22T12:39:34;3.07;;;0.70;;
9108;SDS011;4590;51.462;6.692;2023-12-22T12:42:00;3.30;;;1.08;;
9108;SDS011;4590;51.462;6.692;2023-12-22T12:44:29;4.43;;;0.88;;
9108;SDS011;4590;51.462;6.692;2023-12-22T12:46:57;2.65;;;1.10;;
9108;SDS011;4590;51.462;6.692;2023-12-22T12:49:23;2.03;;;0.90;;
9108;SDS011;4590;51.462;6.692;2023-12-22T12:51:52;5.38;;;1.00;;
9108;SDS011;4590;51.462;6.692;2023-12-22T12:54:18;2.90;;;1.10;;
9108;SDS011;4590;51.462;6.692;2023-12-22T12:56:44;3.03;;;1.05;;
9108;SDS011;4590;51.462;6.692;2023-12-22T12:59:11;3.42;;;1.30;;
9108;SDS011;4590;51.462;6.692;2023-12-22T13:01:44;1.85;;;1.05;;
9108;SDS011;4590;51.462;6.692;2023-12-22T13:04:11;5.68;;;1.10;;
9108;SDS011;4590;51.462;6.692;2023-12-22T13:06:46;2.00;;;0.85;;
9108;SDS011;4590;51.462;6.692;2023-12-22T13:09:12;4.85;;;1.08;;
9108;SDS011;4590;51.462;6.692;2023-12-22T13:11:38;2.60;;;1.17;;
9108;SDS011;4590;51.462;6.692;2023-12-22T13:14:05;2.88;;;1.20;;
9108;SDS011;4590;51.462;6.692;2023-12-22T13:16:32;4.30;;;1.88;;
9108;SDS011;4590;51.462;6.692;2023-12-22T13:18:58;6.72;;;1.70;;
9108;SDS011;4590;51.462;6.692;2023-12-22T13:21:24;5.20;;;1.45;;
9108;SDS011;4590;51.462;6.692;2023-12-22T13:26:38;4.43;;;1.45;;
9108;SDS011;4590;51.462;6.692;2023-12-22T13:29:04;7.30;;;1.65;;
9108;SDS011;4590;51.462;6.692;2023-12-22T13:31:33;4.45;;;1.30;;
9108;SDS011;4590;51.462;6.692;2023-12-22T13:34:01;5.53;;;1.60;;
9108;SDS011;4590;51.462;6.692;2023-12-22T13:36:26;2.23;;;1.10;;
9108;SDS011;4590;51.462;6.692;2023-12-22T13:38:52;4.20;;;1.30;;
9108;SDS011;4590;51.462;6.692;2023-12-22T13:41:18;3.28;;;1.30;;
9108;SDS011;4590;51.462;6.692;2023-12-22T13:43:44;8.00;;;1.40;;
9108;SDS011;4590;51.462;6.692;2023-12-22T13:46:13;3.83;;;1.52;;
9108;SDS011;4590;51.462;6.692;2023-12-22T13:48:41;4.45;;;1.55;;
9108;SDS011;4590;51.462;6.692;2023-12-22T13:51:08;5.82;;;1.25;;
9108;SDS011;4590;51.462;6.692;2023-12-22T13:53:34;3.10;;;1.07;;
9108;SDS011;4590;51.462;6.692;2023-12-22T13:56:00;5.10;;;1.25;;
9108;SDS011;4590;51.462;6.692;2023-12-22T13:58:26;7.97;;;1.50;;
9108;SDS011;4590;51.462;6.692;2023-12-22T14:00:52;3.15;;;1.20;;
9108;SDS011;4590;51.462;6.692;2023-12-22T14:03:18;6.53;;;1.55;;
9108;SDS011;4590;51.462;6.692;2023-12-22T14:05:47;3.70;;;1.30;;
9108;SDS011;4590;51.462;6.692;2023-12-22T14:08:13;4.95;;;1.40;;
9108;SDS011;4590;51.462;6.692;2023-12-22T14:10:44;3.13;;;1.23;;
9108;SDS011;4590;51.462;6.692;2023-12-22T14:13:11;5.50;;;1.38;;
9108;SDS011;4590;51.462;6.692;2023-12-22T14:15:36;4.73;;;1.13;;
9108;SDS011;4590;51.462;6.692;2023-12-22T14:18:01;4.23;;;1.47;;
9108;SDS011;4590;51.462;6.692;2023-12-22T14:20:26;3.90;;;1.17;;
9108;SDS011;4590;51.462;6.692;2023-12-22T14:22:52;5.13;;;1.30;;
9108;SDS011;4590;51.462;6.692;2023-12-22T14:25:17;5.83;;;1.17;;
9108;SDS011;4590;51.462;6.692;2023-12-22T14:27:42;7.50;;;1.60;;
9108;SDS011;4590;51.462;6.692;2023-12-22T14:30:08;5.03;;;1.03;;
9108;SDS011;4590;51.462;6.692;2023-12-22T14:32:33;4.85;;;0.90;;
9108;SDS011;4590;51.462;6.692;2023-12-22T14:34:58;2.57;;;1.03;;
9108;SDS011;4590;51.462;6.692;2023-12-22T14:37:24;4.07;;;0.90;;
9108;SDS011;4590;51.462;6.692;2023-12-22T14:39:49;5.17;;;1.10;;
9108;SDS011;4590;51.462;6.692;2023-12-22T14:42:14;4.23;;;1.30;;
9108;SDS011;4590;51.462;6.692;2023-12-22T14:44:39;4.13;;;1.27;;
9108;SDS011;4590;51.462;6.692;2023-12-22T14:47:05;8.83;;;1.83;;
9108;SDS011;4590;51.462;6.692;2023-12-22T14:49:31;5.35;;;1.38;;
9108;SDS011;4590;51.462;6.692;2023-12-22T14:51:56;5.33;;;1.37;;
9108;SDS011;4590;51.462;6.692;2023-12-22T14:54:23;4.82;;;2.05;;
9108;SDS011;4590;51.462;6.692;2023-12-22T14:56:49;3.97;;;1.30;;
9108;SDS011;4590;51.462;6.692;2023-12-22T14:59:15;5.13;;;1.52;;
9108;SDS011;4590;51.462;6.692;2023-12-22T15:01:41;4.30;;;1.50;;
9108;SDS011;4590;51.462;6.692;2023-12-22T15:04:07;4.90;;;1.77;;
9108;SDS011;4590;51.462;6.692;2023-12-22T15:06:33;5.50;;;1.55;;
9108;SDS011;4590;51.462;6.692;2023-12-22T15:08:58;3.03;;;0.90;;
9108;SDS011;4590;51.462;6.692;2023-12-22T15:11:25;3.55;;;0.90;;
9108;SDS011;4590;51.462;6.692;2023-12-22T15:13:51;2.37;;;1.10;;
9108;SDS011;4590;51.462;6.692;2023-12-22T15:16:16;6.87;;;2.97;;
9108;SDS011;4590;51.462;6.692;2023-12-22T15:18:41;8.30;;;3.60;;
9108;SDS011;4590;51.462;6.692;2023-12-22T15:21:07;4.73;;;2.17;;
9108;SDS011;4590;51.462;6.692;2023-12-22T15:23:32;5.83;;;2.50;;
9108;SDS011;4590;51.462;6.692;2023-12-22T15:25:57;5.33;;;2.60;;
9108;SDS011;4590;51.462;6.692;2023-12-22T15:28:23;7.20;;;2.90;;
9108;SDS011;4590;51.462;6.692;2023-12-22T15:30:48;6.20;;;2.53;;